Terminal Aerodrome Forecast
Issued by NWS

Home | Current Version | Previous Version | Text Only | Print | Product List | Glossary On
Versions: 1 2 3 4 5 6 7 8 9 10 11 12
000
FTUS45 KLKN 241120
TAFEKO
TAF
KEKO 241120Z 2412/2512 VRB06KT P6SM FEW300
     FM241800 24020G35KT P6SM VCTS SCT100CB SCT300
     FM250100 27015G25KT P6SM OVC100
     FM250600 VRB06KT P6SM OVC080=

USA.gov is the U.S. government's official web portal to all federal, state and local government web resources and services.